sensor_id;sensor_type;location;lat;lon;timestamp;temperature;humidity
9103;DHT22;4587;51.434;6.788;2023-05-14T00:01:13;14.40;99.90
9103;DHT22;4587;51.434;6.788;2023-05-14T00:03:38;14.40;99.90
9103;DHT22;4587;51.434;6.788;2023-05-14T00:06:05;14.40;99.90
9103;DHT22;4587;51.434;6.788;2023-05-14T00:08:32;14.30;99.90
9103;DHT22;4587;51.434;6.788;2023-05-14T00:10:57;14.30;99.90
9103;DHT22;4587;51.434;6.788;2023-05-14T00:13:24;14.40;99.90
9103;DHT22;4587;51.434;6.788;2023-05-14T00:15:50;14.30;99.90
9103;DHT22;4587;51.434;6.788;2023-05-14T00:18:16;14.30;99.90
9103;DHT22;4587;51.434;6.788;2023-05-14T00:20:41;14.20;99.90
9103;DHT22;4587;51.434;6.788;2023-05-14T00:23:07;14.10;99.90
9103;DHT22;4587;51.434;6.788;2023-05-14T00:25:33;14.00;99.90
9103;DHT22;4587;51.434;6.788;2023-05-14T00:27:58;13.90;99.90
9103;DHT22;4587;51.434;6.788;2023-05-14T00:30:24;13.80;99.90
9103;DHT22;4587;51.434;6.788;2023-05-14T00:32:49;13.80;99.90
9103;DHT22;4587;51.434;6.788;2023-05-14T00:35:15;13.70;99.90
9103;DHT22;4587;51.434;6.788;2023-05-14T00:37:40;13.70;99.90
9103;DHT22;4587;51.434;6.788;2023-05-14T00:40:07;13.70;99.90
9103;DHT22;4587;51.434;6.788;2023-05-14T00:42:33;13.70;99.90
9103;DHT22;4587;51.434;6.788;2023-05-14T00:44:58;13.70;99.90
9103;DHT22;4587;51.434;6.788;2023-05-14T00:47:24;13.70;99.90
9103;DHT22;4587;51.434;6.788;2023-05-14T00:49:50;13.70;99.90
9103;DHT22;4587;51.434;6.788;2023-05-14T00:52:16;13.70;99.90
9103;DHT22;4587;51.434;6.788;2023-05-14T00:54:44;13.70;99.90
9103;DHT22;4587;51.434;6.788;2023-05-14T00:57:11;13.70;99.90
9103;DHT22;4587;51.434;6.788;2023-05-14T00:59:36;13.70;99.90
9103;DHT22;4587;51.434;6.788;2023-05-14T01:02:05;13.70;99.90
9103;DHT22;4587;51.434;6.788;2023-05-14T01:04:30;13.70;99.90
9103;DHT22;4587;51.434;6.788;2023-05-14T01:07:15;13.80;99.90
9103;DHT22;4587;51.434;6.788;2023-05-14T01:10:07;13.70;99.90
9103;DHT22;4587;51.434;6.788;2023-05-14T01:15:33;13.70;99.90
9103;DHT22;4587;51.434;6.788;2023-05-14T01:18:06;13.60;99.90
9103;DHT22;4587;51.434;6.788;2023-05-14T01:20:32;13.60;99.90
9103;DHT22;4587;51.434;6.788;2023-05-14T01:22:57;13.60;99.90
9103;DHT22;4587;51.434;6.788;2023-05-14T01:25:23;13.60;99.90
9103;DHT22;4587;51.434;6.788;2023-05-14T01:28:00;13.60;99.90
9103;DHT22;4587;51.434;6.788;2023-05-14T01:30:33;13.50;99.90
9103;DHT22;4587;51.434;6.788;2023-05-14T01:33:03;13.40;99.90
9103;DHT22;4587;51.434;6.788;2023-05-14T01:35:30;13.20;99.90
9103;DHT22;4587;51.434;6.788;2023-05-14T01:37:59;13.20;99.90
9103;DHT22;4587;51.434;6.788;2023-05-14T01:40:26;13.10;99.90
9103;DHT22;4587;51.434;6.788;2023-05-14T01:42:52;13.00;99.90
9103;DHT22;4587;51.434;6.788;2023-05-14T01:45:22;13.00;99.90
9103;DHT22;4587;51.434;6.788;2023-05-14T01:47:49;13.00;99.90
9103;DHT22;4587;51.434;6.788;2023-05-14T01:50:14;13.00;99.90
9103;DHT22;4587;51.434;6.788;2023-05-14T01:52:40;13.00;99.90
9103;DHT22;4587;51.434;6.788;2023-05-14T01:55:06;12.90;99.90
9103;DHT22;4587;51.434;6.788;2023-05-14T01:57:32;12.90;99.90
9103;DHT22;4587;51.434;6.788;2023-05-14T01:59:57;12.90;99.90
9103;DHT22;4587;51.434;6.788;2023-05-14T02:02:23;12.90;99.90
9103;DHT22;4587;51.434;6.788;2023-05-14T02:04:49;12.80;99.90
9103;DHT22;4587;51.434;6.788;2023-05-14T02:07:14;12.80;99.90
9103;DHT22;4587;51.434;6.788;2023-05-14T02:09:40;12.70;99.90
9103;DHT22;4587;51.434;6.788;2023-05-14T02:12:07;12.60;99.90
9103;DHT22;4587;51.434;6.788;2023-05-14T02:14:32;12.60;99.90
9103;DHT22;4587;51.434;6.788;2023-05-14T02:16:58;12.50;99.90
9103;DHT22;4587;51.434;6.788;2023-05-14T02:19:24;12.60;99.90
9103;DHT22;4587;51.434;6.788;2023-05-14T02:21:49;12.60;99.90
9103;DHT22;4587;51.434;6.788;2023-05-14T02:24:15;12.60;99.90
9103;DHT22;4587;51.434;6.788;2023-05-14T02:26:41;12.60;99.90
9103;DHT22;4587;51.434;6.788;2023-05-14T02:29:07;12.60;99.90
9103;DHT22;4587;51.434;6.788;2023-05-14T02:31:32;12.50;99.90
9103;DHT22;4587;51.434;6.788;2023-05-14T02:34:00;12.50;99.90
9103;DHT22;4587;51.434;6.788;2023-05-14T02:36:28;12.40;99.90
9103;DHT22;4587;51.434;6.788;2023-05-14T02:38:54;12.40;99.90
9103;DHT22;4587;51.434;6.788;2023-05-14T02:41:19;12.40;99.90
9103;DHT22;4587;51.434;6.788;2023-05-14T02:43:45;12.40;99.90
9103;DHT22;4587;51.434;6.788;2023-05-14T02:46:11;12.30;99.90
9103;DHT22;4587;51.434;6.788;2023-05-14T02:48:36;12.30;99.90
9103;DHT22;4587;51.434;6.788;2023-05-14T02:51:02;12.30;99.90
9103;DHT22;4587;51.434;6.788;2023-05-14T02:53:28;12.10;99.90
9103;DHT22;4587;51.434;6.788;2023-05-14T02:55:53;12.20;99.90
9103;DHT22;4587;51.434;6.788;2023-05-14T02:58:19;12.70;99.90
9103;DHT22;4587;51.434;6.788;2023-05-14T03:00:44;12.40;99.90
9103;DHT22;4587;51.434;6.788;2023-05-14T03:03:10;12.00;99.90
9103;DHT22;4587;51.434;6.788;2023-05-14T03:05:35;12.10;99.90
9103;DHT22;4587;51.434;6.788;2023-05-14T03:08:01;12.10;99.90
9103;DHT22;4587;51.434;6.788;2023-05-14T03:10:27;12.70;99.90
9103;DHT22;4587;51.434;6.788;2023-05-14T03:12:52;12.00;99.90
9103;DHT22;4587;51.434;6.788;2023-05-14T03:15:18;11.70;99.90
9103;DHT22;4587;51.434;6.788;2023-05-14T03:17:43;12.00;99.90
9103;DHT22;4587;51.434;6.788;2023-05-14T03:20:10;11.90;99.90
9103;DHT22;4587;51.434;6.788;2023-05-14T03:22:35;11.80;99.90
9103;DHT22;4587;51.434;6.788;2023-05-14T03:25:01;11.90;99.90
9103;DHT22;4587;51.434;6.788;2023-05-14T03:27:26;11.80;99.90
9103;DHT22;4587;51.434;6.788;2023-05-14T03:29:52;11.70;99.90
9103;DHT22;4587;51.434;6.788;2023-05-14T03:32:17;11.60;99.90
9103;DHT22;4587;51.434;6.788;2023-05-14T03:34:43;11.70;99.90
9103;DHT22;4587;51.434;6.788;2023-05-14T03:37:09;11.60;99.90
9103;DHT22;4587;51.434;6.788;2023-05-14T03:39:35;11.50;99.90
9103;DHT22;4587;51.434;6.788;2023-05-14T03:42:01;11.70;99.90
9103;DHT22;4587;51.434;6.788;2023-05-14T03:44:26;11.10;99.90
9103;DHT22;4587;51.434;6.788;2023-05-14T03:46:52;11.80;99.90
9103;DHT22;4587;51.434;6.788;2023-05-14T03:49:18;12.10;99.90
9103;DHT22;4587;51.434;6.788;2023-05-14T03:54:09;11.00;99.90
9103;DHT22;4587;51.434;6.788;2023-05-14T03:56:35;11.50;99.90
9103;DHT22;4587;51.434;6.788;2023-05-14T03:59:01;11.70;99.90
9103;DHT22;4587;51.434;6.788;2023-05-14T04:01:26;11.70;99.90
9103;DHT22;4587;51.434;6.788;2023-05-14T04:03:52;11.70;99.90
9103;DHT22;4587;51.434;6.788;2023-05-14T04:06:18;12.40;99.90
9103;DHT22;4587;51.434;6.788;2023-05-14T04:08:43;11.90;99.90
9103;DHT22;4587;51.434;6.788;2023-05-14T04:11:09;12.20;99.90
9103;DHT22;4587;51.434;6.788;2023-05-14T04:13:34;11.60;99.90
9103;DHT22;4587;51.434;6.788;2023-05-14T04:16:00;12.00;99.90
9103;DHT22;4587;51.434;6.788;2023-05-14T04:18:25;12.00;99.90
9103;DHT22;4587;51.434;6.788;2023-05-14T04:20:51;11.10;99.90
9103;DHT22;4587;51.434;6.788;2023-05-14T04:23:17;11.90;99.90
9103;DHT22;4587;51.434;6.788;2023-05-14T04:25:42;12.20;99.90
9103;DHT22;4587;51.434;6.788;2023-05-14T04:28:08;12.00;99.90
9103;DHT22;4587;51.434;6.788;2023-05-14T04:30:33;11.50;99.90
9103;DHT22;4587;51.434;6.788;2023-05-14T04:32:59;12.00;99.90
9103;DHT22;4587;51.434;6.788;2023-05-14T04:35:24;12.50;99.90
9103;DHT22;4587;51.434;6.788;2023-05-14T04:37:50;11.90;99.90
9103;DHT22;4587;51.434;6.788;2023-05-14T04:40:15;11.80;99.90
9103;DHT22;4587;51.434;6.788;2023-05-14T04:42:42;12.30;99.90
9103;DHT22;4587;51.434;6.788;2023-05-14T04:45:08;12.30;99.90
9103;DHT22;4587;51.434;6.788;2023-05-14T04:47:34;11.80;99.90
9103;DHT22;4587;51.434;6.788;2023-05-14T04:50:00;12.30;99.90
9103;DHT22;4587;51.434;6.788;2023-05-14T04:52:25;12.30;99.90
9103;DHT22;4587;51.434;6.788;2023-05-14T04:54:51;12.40;99.90
9103;DHT22;4587;51.434;6.788;2023-05-14T04:57:17;12.40;99.90
9103;DHT22;4587;51.434;6.788;2023-05-14T04:59:42;12.50;99.90
9103;DHT22;4587;51.434;6.788;2023-05-14T05:02:08;12.40;99.90
9103;DHT22;4587;51.434;6.788;2023-05-14T05:04:35;12.40;99.90
9103;DHT22;4587;51.434;6.788;2023-05-14T05:07:01;12.60;99.90
9103;DHT22;4587;51.434;6.788;2023-05-14T05:09:26;12.50;99.90
9103;DHT22;4587;51.434;6.788;2023-05-14T05:11:52;12.50;99.90
9103;DHT22;4587;51.434;6.788;2023-05-14T05:14:17;12.40;99.90
9103;DHT22;4587;51.434;6.788;2023-05-14T05:16:43;12.50;99.90
9103;DHT22;4587;51.434;6.788;2023-05-14T05:19:09;12.50;99.90
9103;DHT22;4587;51.434;6.788;2023-05-14T05:21:35;12.70;99.90
9103;DHT22;4587;51.434;6.788;2023-05-14T05:24:00;12.70;99.90
9103;DHT22;4587;51.434;6.788;2023-05-14T05:26:26;12.80;99.90
9103;DHT22;4587;51.434;6.788;2023-05-14T05:28:52;12.90;99.90
9103;DHT22;4587;51.434;6.788;2023-05-14T05:31:18;13.10;99.90
9103;DHT22;4587;51.434;6.788;2023-05-14T05:33:43;13.30;99.90
9103;DHT22;4587;51.434;6.788;2023-05-14T05:36:09;13.60;99.90
9103;DHT22;4587;51.434;6.788;2023-05-14T05:38:34;13.70;99.90
9103;DHT22;4587;51.434;6.788;2023-05-14T05:41:00;13.80;99.90
9103;DHT22;4587;51.434;6.788;2023-05-14T05:43:26;13.80;99.90
9103;DHT22;4587;51.434;6.788;2023-05-14T05:45:53;14.10;99.90
9103;DHT22;4587;51.434;6.788;2023-05-14T05:48:18;13.90;99.90
9103;DHT22;4587;51.434;6.788;2023-05-14T05:50:46;14.00;99.90
9103;DHT22;4587;51.434;6.788;2023-05-14T05:53:11;14.10;99.90
9103;DHT22;4587;51.434;6.788;2023-05-14T05:55:37;14.20;99.90
9103;DHT22;4587;51.434;6.788;2023-05-14T05:58:02;14.30;99.90
9103;DHT22;4587;51.434;6.788;2023-05-14T06:00:28;14.50;99.90
9103;DHT22;4587;51.434;6.788;2023-05-14T06:02:55;14.70;99.90
9103;DHT22;4587;51.434;6.788;2023-05-14T06:05:21;15.10;99.90
9103;DHT22;4587;51.434;6.788;2023-05-14T06:07:46;15.00;99.90
9103;DHT22;4587;51.434;6.788;2023-05-14T06:10:12;15.10;99.90
9103;DHT22;4587;51.434;6.788;2023-05-14T06:12:37;15.40;99.90
9103;DHT22;4587;51.434;6.788;2023-05-14T06:15:03;15.70;99.90
9103;DHT22;4587;51.434;6.788;2023-05-14T06:17:29;15.70;99.90
9103;DHT22;4587;51.434;6.788;2023-05-14T06:19:54;15.80;99.90
9103;DHT22;4587;51.434;6.788;2023-05-14T06:22:20;15.60;99.90
9103;DHT22;4587;51.434;6.788;2023-05-14T06:24:46;15.70;99.90
9103;DHT22;4587;51.434;6.788;2023-05-14T06:27:12;15.90;99.90
9103;DHT22;4587;51.434;6.788;2023-05-14T06:29:37;15.50;99.90
9103;DHT22;4587;51.434;6.788;2023-05-14T06:32:04;15.50;99.90
9103;DHT22;4587;51.434;6.788;2023-05-14T06:34:30;15.80;99.90
9103;DHT22;4587;51.434;6.788;2023-05-14T06:36:55;16.30;99.90
9103;DHT22;4587;51.434;6.788;2023-05-14T06:39:22;17.40;99.90
9103;DHT22;4587;51.434;6.788;2023-05-14T06:41:48;19.00;99.90
9103;DHT22;4587;51.434;6.788;2023-05-14T06:44:15;20.70;99.90
9103;DHT22;4587;51.434;6.788;2023-05-14T06:46:40;22.10;99.90
9103;DHT22;4587;51.434;6.788;2023-05-14T06:49:06;22.90;99.90
9103;DHT22;4587;51.434;6.788;2023-05-14T06:51:32;23.50;99.90
9103;DHT22;4587;51.434;6.788;2023-05-14T06:53:57;23.70;99.90
9103;DHT22;4587;51.434;6.788;2023-05-14T06:56:23;23.30;99.90
9103;DHT22;4587;51.434;6.788;2023-05-14T06:58:48;23.80;99.90
9103;DHT22;4587;51.434;6.788;2023-05-14T07:01:14;24.30;99.90
9103;DHT22;4587;51.434;6.788;2023-05-14T07:03:40;25.20;99.90
9103;DHT22;4587;51.434;6.788;2023-05-14T07:06:05;26.10;99.90
9103;DHT22;4587;51.434;6.788;2023-05-14T07:08:31;26.40;98.20
9103;DHT22;4587;51.434;6.788;2023-05-14T07:10:57;26.80;98.20
9103;DHT22;4587;51.434;6.788;2023-05-14T07:13:23;27.40;96.20
9103;DHT22;4587;51.434;6.788;2023-05-14T07:15:48;28.00;94.50
9103;DHT22;4587;51.434;6.788;2023-05-14T07:18:15;28.40;94.00
9103;DHT22;4587;51.434;6.788;2023-05-14T07:20:41;28.70;93.00
9103;DHT22;4587;51.434;6.788;2023-05-14T07:23:06;28.90;92.10
9103;DHT22;4587;51.434;6.788;2023-05-14T07:25:32;28.30;91.30
9103;DHT22;4587;51.434;6.788;2023-05-14T07:27:57;27.60;92.00
9103;DHT22;4587;51.434;6.788;2023-05-14T07:30:23;27.70;92.20
9103;DHT22;4587;51.434;6.788;2023-05-14T07:32:48;28.00;92.00
9103;DHT22;4587;51.434;6.788;2023-05-14T07:35:14;28.90;91.30
9103;DHT22;4587;51.434;6.788;2023-05-14T07:37:40;29.80;89.60
9103;DHT22;4587;51.434;6.788;2023-05-14T07:40:07;30.00;86.10
9103;DHT22;4587;51.434;6.788;2023-05-14T07:42:34;29.50;86.70
9103;DHT22;4587;51.434;6.788;2023-05-14T07:45:00;29.00;86.30
9103;DHT22;4587;51.434;6.788;2023-05-14T07:47:25;29.20;86.80
9103;DHT22;4587;51.434;6.788;2023-05-14T07:49:55;28.70;87.90
9103;DHT22;4587;51.434;6.788;2023-05-14T07:52:21;28.10;88.20
9103;DHT22;4587;51.434;6.788;2023-05-14T07:54:46;27.70;88.20
9103;DHT22;4587;51.434;6.788;2023-05-14T07:57:12;27.30;89.00
9103;DHT22;4587;51.434;6.788;2023-05-14T07:59:37;27.40;90.30
9103;DHT22;4587;51.434;6.788;2023-05-14T08:02:03;27.70;89.20
9103;DHT22;4587;51.434;6.788;2023-05-14T08:04:29;27.30;90.00
9103;DHT22;4587;51.434;6.788;2023-05-14T08:06:54;27.10;90.40
9103;DHT22;4587;51.434;6.788;2023-05-14T08:09:22;27.40;90.00
9103;DHT22;4587;51.434;6.788;2023-05-14T08:11:48;27.30;90.90
9103;DHT22;4587;51.434;6.788;2023-05-14T08:14:13;26.70;90.70
9103;DHT22;4587;51.434;6.788;2023-05-14T08:16:39;26.10;92.10
9103;DHT22;4587;51.434;6.788;2023-05-14T08:19:04;25.50;92.90
9103;DHT22;4587;51.434;6.788;2023-05-14T08:21:30;25.30;93.70
9103;DHT22;4587;51.434;6.788;2023-05-14T08:23:57;25.10;93.40
9103;DHT22;4587;51.434;6.788;2023-05-14T08:26:22;24.80;94.20
9103;DHT22;4587;51.434;6.788;2023-05-14T08:28:48;24.70;95.10
9103;DHT22;4587;51.434;6.788;2023-05-14T08:31:13;24.60;95.80
9103;DHT22;4587;51.434;6.788;2023-05-14T08:33:39;24.70;92.90
9103;DHT22;4587;51.434;6.788;2023-05-14T08:36:05;24.60;92.40
9103;DHT22;4587;51.434;6.788;2023-05-14T08:38:31;24.60;91.60
9103;DHT22;4587;51.434;6.788;2023-05-14T08:40:58;24.50;92.10
9103;DHT22;4587;51.434;6.788;2023-05-14T08:43:43;24.50;91.00
9103;DHT22;4587;51.434;6.788;2023-05-14T08:46:12;24.60;90.20
9103;DHT22;4587;51.434;6.788;2023-05-14T08:48:41;24.50;90.80
9103;DHT22;4587;51.434;6.788;2023-05-14T08:51:07;24.50;92.60
9103;DHT22;4587;51.434;6.788;2023-05-14T08:53:33;24.40;89.80
9103;DHT22;4587;51.434;6.788;2023-05-14T08:56:00;24.40;90.20
9103;DHT22;4587;51.434;6.788;2023-05-14T08:58:27;24.30;88.00
9103;DHT22;4587;51.434;6.788;2023-05-14T09:00:53;24.30;89.80
9103;DHT22;4587;51.434;6.788;2023-05-14T09:03:20;24.10;88.20
9103;DHT22;4587;51.434;6.788;2023-05-14T09:05:48;24.10;88.10
9103;DHT22;4587;51.434;6.788;2023-05-14T09:08:15;24.10;91.10
9103;DHT22;4587;51.434;6.788;2023-05-14T09:10:41;24.30;90.80
9103;DHT22;4587;51.434;6.788;2023-05-14T09:13:06;24.30;90.10
9103;DHT22;4587;51.434;6.788;2023-05-14T09:15:35;24.30;88.70
9103;DHT22;4587;51.434;6.788;2023-05-14T09:18:04;24.50;87.90
9103;DHT22;4587;51.434;6.788;2023-05-14T09:20:30;24.50;85.40
9103;DHT22;4587;51.434;6.788;2023-05-14T09:22:57;24.50;85.30
9103;DHT22;4587;51.434;6.788;2023-05-14T09:25:30;24.40;85.40
9103;DHT22;4587;51.434;6.788;2023-05-14T09:27:56;24.30;84.20
9103;DHT22;4587;51.434;6.788;2023-05-14T09:30:23;24.30;85.20
9103;DHT22;4587;51.434;6.788;2023-05-14T09:32:49;24.30;85.30
9103;DHT22;4587;51.434;6.788;2023-05-14T09:35:22;24.30;83.50
9103;DHT22;4587;51.434;6.788;2023-05-14T09:37:52;24.30;80.90
9103;DHT22;4587;51.434;6.788;2023-05-14T09:40:19;24.30;81.60
9103;DHT22;4587;51.434;6.788;2023-05-14T09:42:46;24.30;81.50
9103;DHT22;4587;51.434;6.788;2023-05-14T09:45:15;24.20;83.00
9103;DHT22;4587;51.434;6.788;2023-05-14T09:47:41;24.30;83.50
9103;DHT22;4587;51.434;6.788;2023-05-14T09:50:07;24.50;81.00
9103;DHT22;4587;51.434;6.788;2023-05-14T09:52:34;24.50;80.90
9103;DHT22;4587;51.434;6.788;2023-05-14T09:55:00;24.50;80.50
9103;DHT22;4587;51.434;6.788;2023-05-14T09:57:26;24.50;80.70
9103;DHT22;4587;51.434;6.788;2023-05-14T09:59:52;24.50;79.20
9103;DHT22;4587;51.434;6.788;2023-05-14T10:02:26;24.50;77.00
9103;DHT22;4587;51.434;6.788;2023-05-14T10:04:56;24.60;81.40
9103;DHT22;4587;51.434;6.788;2023-05-14T10:07:30;24.60;77.30
9103;DHT22;4587;51.434;6.788;2023-05-14T10:10:00;24.70;79.40
9103;DHT22;4587;51.434;6.788;2023-05-14T10:12:30;24.80;73.60
9103;DHT22;4587;51.434;6.788;2023-05-14T10:15:00;24.70;75.20
9103;DHT22;4587;51.434;6.788;2023-05-14T10:17:30;24.60;72.80
9103;DHT22;4587;51.434;6.788;2023-05-14T10:19:57;24.60;74.80
9103;DHT22;4587;51.434;6.788;2023-05-14T10:22:28;24.70;73.60
9103;DHT22;4587;51.434;6.788;2023-05-14T10:24:55;24.60;75.80
9103;DHT22;4587;51.434;6.788;2023-05-14T10:27:22;24.60;74.60
9103;DHT22;4587;51.434;6.788;2023-05-14T10:29:54;24.30;73.80
9103;DHT22;4587;51.434;6.788;2023-05-14T10:32:22;24.30;74.10
9103;DHT22;4587;51.434;6.788;2023-05-14T10:34:49;24.30;74.30
9103;DHT22;4587;51.434;6.788;2023-05-14T10:39:58;24.30;73.50
9103;DHT22;4587;51.434;6.788;2023-05-14T10:42:27;24.50;75.40
9103;DHT22;4587;51.434;6.788;2023-05-14T10:44:55;24.60;73.20
9103;DHT22;4587;51.434;6.788;2023-05-14T10:47:24;24.60;74.40
9103;DHT22;4587;51.434;6.788;2023-05-14T10:49:53;24.60;72.40
9103;DHT22;4587;51.434;6.788;2023-05-14T10:52:20;24.50;71.70
9103;DHT22;4587;51.434;6.788;2023-05-14T10:54:54;24.50;73.60
9103;DHT22;4587;51.434;6.788;2023-05-14T10:57:21;24.20;74.30
9103;DHT22;4587;51.434;6.788;2023-05-14T10:59:49;24.00;73.00
9103;DHT22;4587;51.434;6.788;2023-05-14T11:02:35;23.80;69.70
9103;DHT22;4587;51.434;6.788;2023-05-14T11:05:05;23.50;66.90
9103;DHT22;4587;51.434;6.788;2023-05-14T11:07:37;23.30;68.60
9103;DHT22;4587;51.434;6.788;2023-05-14T11:10:08;23.30;68.50
9103;DHT22;4587;51.434;6.788;2023-05-14T11:12:39;23.30;67.60
9103;DHT22;4587;51.434;6.788;2023-05-14T11:15:06;23.30;68.70
9103;DHT22;4587;51.434;6.788;2023-05-14T11:17:35;23.30;66.70
9103;DHT22;4587;51.434;6.788;2023-05-14T11:20:01;23.50;68.30
9103;DHT22;4587;51.434;6.788;2023-05-14T11:22:27;23.70;68.80
9103;DHT22;4587;51.434;6.788;2023-05-14T11:24:53;23.90;62.70
9103;DHT22;4587;51.434;6.788;2023-05-14T11:27:20;23.90;63.90
9103;DHT22;4587;51.434;6.788;2023-05-14T11:29:47;23.70;65.00
9103;DHT22;4587;51.434;6.788;2023-05-14T11:32:14;23.70;65.40
9103;DHT22;4587;51.434;6.788;2023-05-14T11:34:40;23.90;65.90
9103;DHT22;4587;51.434;6.788;2023-05-14T11:37:07;24.00;60.60
9103;DHT22;4587;51.434;6.788;2023-05-14T11:39:33;24.20;61.20
9103;DHT22;4587;51.434;6.788;2023-05-14T11:42:02;24.20;60.80
9103;DHT22;4587;51.434;6.788;2023-05-14T11:44:28;24.30;63.20
9103;DHT22;4587;51.434;6.788;2023-05-14T11:46:55;24.30;62.00
9103;DHT22;4587;51.434;6.788;2023-05-14T11:49:25;24.10;64.30
9103;DHT22;4587;51.434;6.788;2023-05-14T11:52:05;24.00;62.90
9103;DHT22;4587;51.434;6.788;2023-05-14T11:54:32;23.80;60.00
9103;DHT22;4587;51.434;6.788;2023-05-14T11:57:01;23.70;59.90
9103;DHT22;4587;51.434;6.788;2023-05-14T11:59:28;23.70;60.90
9103;DHT22;4587;51.434;6.788;2023-05-14T12:01:56;23.90;60.90
9103;DHT22;4587;51.434;6.788;2023-05-14T12:04:21;24.00;61.20
9103;DHT22;4587;51.434;6.788;2023-05-14T12:06:48;24.00;59.80
9103;DHT22;4587;51.434;6.788;2023-05-14T12:09:16;24.10;59.70
9103;DHT22;4587;51.434;6.788;2023-05-14T12:11:43;24.10;61.30
9103;DHT22;4587;51.434;6.788;2023-05-14T12:14:10;24.00;62.80
9103;DHT22;4587;51.434;6.788;2023-05-14T12:16:39;23.90;63.20
9103;DHT22;4587;51.434;6.788;2023-05-14T12:19:05;23.90;64.80
9103;DHT22;4587;51.434;6.788;2023-05-14T12:21:33;24.00;63.60
9103;DHT22;4587;51.434;6.788;2023-05-14T12:23:59;24.20;65.20
9103;DHT22;4587;51.434;6.788;2023-05-14T12:26:25;24.30;64.40
9103;DHT22;4587;51.434;6.788;2023-05-14T12:29:01;24.40;58.60
9103;DHT22;4587;51.434;6.788;2023-05-14T12:31:28;24.40;58.30
9103;DHT22;4587;51.434;6.788;2023-05-14T12:33:54;24.30;60.40
9103;DHT22;4587;51.434;6.788;2023-05-14T12:36:20;24.50;59.00
9103;DHT22;4587;51.434;6.788;2023-05-14T12:38:45;24.60;59.90
9103;DHT22;4587;51.434;6.788;2023-05-14T12:41:11;24.70;60.70
9103;DHT22;4587;51.434;6.788;2023-05-14T12:43:36;24.70;63.70
9103;DHT22;4587;51.434;6.788;2023-05-14T12:46:02;24.50;63.30
9103;DHT22;4587;51.434;6.788;2023-05-14T12:48:27;24.20;64.80
9103;DHT22;4587;51.434;6.788;2023-05-14T12:50:53;24.00;64.60
9103;DHT22;4587;51.434;6.788;2023-05-14T12:53:19;23.90;60.90
9103;DHT22;4587;51.434;6.788;2023-05-14T12:55:44;23.70;60.00
9103;DHT22;4587;51.434;6.788;2023-05-14T12:58:10;23.50;59.10
9103;DHT22;4587;51.434;6.788;2023-05-14T13:00:35;23.30;59.40
9103;DHT22;4587;51.434;6.788;2023-05-14T13:03:01;23.20;58.70
9103;DHT22;4587;51.434;6.788;2023-05-14T13:05:26;23.20;59.10
9103;DHT22;4587;51.434;6.788;2023-05-14T13:07:58;23.20;59.50
9103;DHT22;4587;51.434;6.788;2023-05-14T13:10:24;23.30;62.70
9103;DHT22;4587;51.434;6.788;2023-05-14T13:12:50;23.40;60.00
9103;DHT22;4587;51.434;6.788;2023-05-14T13:15:17;23.60;60.50
9103;DHT22;4587;51.434;6.788;2023-05-14T13:17:42;23.80;60.70
9103;DHT22;4587;51.434;6.788;2023-05-14T13:20:08;24.10;62.70
9103;DHT22;4587;51.434;6.788;2023-05-14T13:22:34;24.30;60.50
9103;DHT22;4587;51.434;6.788;2023-05-14T13:25:00;24.30;61.30
9103;DHT22;4587;51.434;6.788;2023-05-14T13:27:25;24.30;57.70
9103;DHT22;4587;51.434;6.788;2023-05-14T13:29:51;24.40;58.20
9103;DHT22;4587;51.434;6.788;2023-05-14T13:32:17;24.40;59.30
9103;DHT22;4587;51.434;6.788;2023-05-14T13:34:42;24.50;58.70
9103;DHT22;4587;51.434;6.788;2023-05-14T13:37:08;24.50;59.00
9103;DHT22;4587;51.434;6.788;2023-05-14T13:39:34;24.50;59.40
9103;DHT22;4587;51.434;6.788;2023-05-14T13:41:59;24.30;60.70
9103;DHT22;4587;51.434;6.788;2023-05-14T13:44:25;24.20;61.20
9103;DHT22;4587;51.434;6.788;2023-05-14T13:46:51;24.10;63.60
9103;DHT22;4587;51.434;6.788;2023-05-14T13:49:17;24.00;65.20
9103;DHT22;4587;51.434;6.788;2023-05-14T13:51:43;23.80;66.20
9103;DHT22;4587;51.434;6.788;2023-05-14T13:54:08;23.80;67.90
9103;DHT22;4587;51.434;6.788;2023-05-14T13:56:34;23.70;66.00
9103;DHT22;4587;51.434;6.788;2023-05-14T13:58:59;23.70;63.70
9103;DHT22;4587;51.434;6.788;2023-05-14T14:01:25;23.70;63.40
9103;DHT22;4587;51.434;6.788;2023-05-14T14:03:51;23.80;63.40
9103;DHT22;4587;51.434;6.788;2023-05-14T14:06:17;23.90;64.60
9103;DHT22;4587;51.434;6.788;2023-05-14T14:08:42;24.00;64.20
9103;DHT22;4587;51.434;6.788;2023-05-14T14:11:08;24.00;64.00
9103;DHT22;4587;51.434;6.788;2023-05-14T14:13:33;24.00;60.90
9103;DHT22;4587;51.434;6.788;2023-05-14T14:15:59;24.00;60.50
9103;DHT22;4587;51.434;6.788;2023-05-14T14:18:27;23.90;61.50
9103;DHT22;4587;51.434;6.788;2023-05-14T14:20:52;23.90;62.20
9103;DHT22;4587;51.434;6.788;2023-05-14T14:23:18;23.90;62.80
9103;DHT22;4587;51.434;6.788;2023-05-14T14:25:43;24.00;64.70
9103;DHT22;4587;51.434;6.788;2023-05-14T14:28:09;24.10;62.50
9103;DHT22;4587;51.434;6.788;2023-05-14T14:30:35;24.10;61.10
9103;DHT22;4587;51.434;6.788;2023-05-14T14:33:00;24.00;61.90
9103;DHT22;4587;51.434;6.788;2023-05-14T14:35:26;23.80;61.10
9103;DHT22;4587;51.434;6.788;2023-05-14T14:37:51;23.70;60.10
9103;DHT22;4587;51.434;6.788;2023-05-14T14:40:19;23.60;60.50
9103;DHT22;4587;51.434;6.788;2023-05-14T14:42:46;23.50;59.90
9103;DHT22;4587;51.434;6.788;2023-05-14T14:45:12;23.60;60.50
9103;DHT22;4587;51.434;6.788;2023-05-14T14:47:42;23.60;59.70
9103;DHT22;4587;51.434;6.788;2023-05-14T14:50:08;23.60;60.50
9103;DHT22;4587;51.434;6.788;2023-05-14T14:52:34;23.70;61.80
9103;DHT22;4587;51.434;6.788;2023-05-14T14:55:00;23.70;61.70
9103;DHT22;4587;51.434;6.788;2023-05-14T14:57:26;23.70;63.40
9103;DHT22;4587;51.434;6.788;2023-05-14T14:59:52;23.70;62.10
9103;DHT22;4587;51.434;6.788;2023-05-14T15:02:17;23.50;62.20
9103;DHT22;4587;51.434;6.788;2023-05-14T15:04:43;23.40;62.90
9103;DHT22;4587;51.434;6.788;2023-05-14T15:07:08;23.30;63.20
9103;DHT22;4587;51.434;6.788;2023-05-14T15:09:34;23.30;63.90
9103;DHT22;4587;51.434;6.788;2023-05-14T15:11:59;23.20;64.80
9103;DHT22;4587;51.434;6.788;2023-05-14T15:14:25;23.10;66.30
9103;DHT22;4587;51.434;6.788;2023-05-14T15:16:51;23.10;67.30
9103;DHT22;4587;51.434;6.788;2023-05-14T15:19:16;23.00;68.00
9103;DHT22;4587;51.434;6.788;2023-05-14T15:21:42;23.00;68.70
9103;DHT22;4587;51.434;6.788;2023-05-14T15:24:11;23.10;71.40
9103;DHT22;4587;51.434;6.788;2023-05-14T15:26:40;23.00;69.40
9103;DHT22;4587;51.434;6.788;2023-05-14T15:29:05;23.00;70.10
9103;DHT22;4587;51.434;6.788;2023-05-14T15:31:32;23.10;70.70
9103;DHT22;4587;51.434;6.788;2023-05-14T15:33:57;23.40;71.20
9103;DHT22;4587;51.434;6.788;2023-05-14T15:36:23;23.20;68.30
9103;DHT22;4587;51.434;6.788;2023-05-14T15:38:48;23.00;68.40
9103;DHT22;4587;51.434;6.788;2023-05-14T15:41:14;23.00;69.20
9103;DHT22;4587;51.434;6.788;2023-05-14T15:43:40;22.90;69.20
9103;DHT22;4587;51.434;6.788;2023-05-14T15:46:05;22.90;70.00
9103;DHT22;4587;51.434;6.788;2023-05-14T15:48:31;22.70;72.70
9103;DHT22;4587;51.434;6.788;2023-05-14T15:50:56;22.70;74.30
9103;DHT22;4587;51.434;6.788;2023-05-14T15:53:23;22.20;79.60
9103;DHT22;4587;51.434;6.788;2023-05-14T15:55:50;22.70;72.10
9103;DHT22;4587;51.434;6.788;2023-05-14T15:58:15;21.60;80.30
9103;DHT22;4587;51.434;6.788;2023-05-14T16:00:41;22.70;77.80
9103;DHT22;4587;51.434;6.788;2023-05-14T16:03:07;23.70;81.40
9103;DHT22;4587;51.434;6.788;2023-05-14T16:05:32;22.60;70.50